Time;durP1;ratioP1;P1;durP2;ratioP2;P2;SDS_P1;SDS_P2;PMS_P1;PMS_P2;Temp;Humidity;BMP_temperature;BMP_pressure;BME280_temperature;BME280_humidity;BME280_pressure;Samples;Min_cycle;Max_cycle;Signal;HPM_P1;HPM_P2
2021/07/29 07:50:17;;;;;;;5.25;3.80;;;;;;;;;;4926875;29;20434;-82
2021/07/29 07:52:43;;;;;;;7.80;3.70;;;;;;;;;;4934059;29;20091;-82
2021/07/29 07:55:09;;;;;;;4.68;3.50;;;;;;;;;;4933884;29;20392;-82
2021/07/29 07:57:35;;;;;;;5.45;3.70;;;;;;;;;;4911842;29;20044;-82
2021/07/29 08:00:01;;;;;;;6.10;3.60;;;;;;;;;;4925402;29;20445;-82
2021/07/29 08:02:28;;;;;;;4.97;3.55;;;;;;;;;;4929044;29;20106;-82
2021/07/29 08:04:54;;;;;;;5.97;3.75;;;;;;;;;;4935117;29;20490;-82
2021/07/29 08:07:21;;;;;;;6.25;3.60;;;;;;;;;;4926524;29;20020;-82
2021/07/29 08:09:46;;;;;;;4.93;3.95;;;;;;;;;;4928886;29;20370;-82
2021/07/29 08:12:12;;;;;;;7.65;3.90;;;;;;;;;;4926828;29;20035;-82
2021/07/29 08:14:41;;;;;;;6.05;3.85;;;;;;;;;;4937386;29;20040;-83
2021/07/29 08:17:06;;;;;;;5.43;3.63;;;;;;;;;;4903014;29;20043;-83
2021/07/29 08:19:32;;;;;;;4.22;3.28;;;;;;;;;;4924263;29;20024;-81
2021/07/29 08:21:59;;;;;;;4.35;3.55;;;;;;;;;;4921854;29;20400;-81
2021/07/29 08:24:25;;;;;;;5.68;3.70;;;;;;;;;;4917454;29;20028;-81
2021/07/29 08:26:51;;;;;;;6.45;3.33;;;;;;;;;;4909941;29;20031;-80
2021/07/29 08:29:17;;;;;;;4.90;3.40;;;;;;;;;;4907153;29;20030;-80
2021/07/29 08:31:42;;;;;;;3.47;3.03;;;;;;;;;;4904144;29;20041;-80
2021/07/29 08:34:08;;;;;;;6.72;3.20;;;;;;;;;;4920523;29;20031;-82
2021/07/29 08:36:34;;;;;;;4.60;4.13;;;;;;;;;;4917246;29;20068;-81
2021/07/29 08:39:00;;;;;;;4.93;3.40;;;;;;;;;;4898465;29;20540;-81
2021/07/29 08:41:26;;;;;;;4.32;3.20;;;;;;;;;;4899422;29;20066;-82
2021/07/29 08:43:51;;;;;;;7.72;3.50;;;;;;;;;;4901819;29;20020;-80
2021/07/29 08:46:20;;;;;;;5.20;3.20;;;;;;;;;;4917479;29;20484;-81
2021/07/29 08:48:48;;;;;;;6.80;3.75;;;;;;;;;;4919031;29;20099;-81
2021/07/29 08:51:19;;;;;;;5.85;3.53;;;;;;;;;;4917669;29;20036;-80
2021/07/29 08:53:47;;;;;;;4.28;3.60;;;;;;;;;;4918922;29;20059;-80
2021/07/29 08:56:17;;;;;;;3.92;3.42;;;;;;;;;;4920627;29;20048;-81
2021/07/29 08:58:43;;;;;;;3.80;3.40;;;;;;;;;;4917946;29;20493;-81
2021/07/29 09:01:11;;;;;;;5.55;3.28;;;;;;;;;;4915731;29;20036;-80
2021/07/29 09:03:37;;;;;;;5.07;3.72;;;;;;;;;;4914738;29;20059;-81
2021/07/29 09:06:08;;;;;;;4.18;3.17;;;;;;;;;;4917595;29;20032;-80
2021/07/29 09:08:46;;;;;;;4.70;3.72;;;;;;;;;;4923027;29;20071;-81
2021/07/29 09:11:33;;;;;;;4.45;3.92;;;;;;;;;;4919186;29;20091;-81
2021/07/29 09:14:12;;;;;;;7.28;3.65;;;;;;;;;;4921469;29;20036;-81
2021/07/29 09:16:57;;;;;;;4.28;3.50;;;;;;;;;;4918525;29;20039;-81
2021/07/29 09:19:47;;;;;;;5.32;3.80;;;;;;;;;;4901940;29;20510;-81
2021/07/29 09:22:23;;;;;;;7.07;3.83;;;;;;;;;;4921825;29;20043;-81
2021/07/29 09:25:06;;;;;;;5.75;3.85;;;;;;;;;;4921467;29;20032;-81
2021/07/29 09:27:38;;;;;;;5.35;4.03;;;;;;;;;;4903056;29;20024;-81
2021/07/29 09:30:26;;;;;;;4.63;3.58;;;;;;;;;;4919767;29;20039;-81
2021/07/29 09:33:05;;;;;;;5.18;3.95;;;;;;;;;;4914314;29;20028;-80
2021/07/29 09:35:42;;;;;;;4.68;3.97;;;;;;;;;;4918943;29;20053;-82
2021/07/29 09:38:24;;;;;;;4.70;3.92;;;;;;;;;;4907550;29;20040;-81
2021/07/29 09:40:59;;;;;;;4.85;4.05;;;;;;;;;;4927079;29;20381;-81
2021/07/29 09:43:33;;;;;;;4.63;3.78;;;;;;;;;;4921004;29;20034;-81
2021/07/29 09:46:16;;;;;;;6.25;3.97;;;;;;;;;;4925068;29;20043;-81
2021/07/29 09:48:43;;;;;;;5.75;3.33;;;;;;;;;;4919786;29;20060;-81
2021/07/29 09:51:10;;;;;;;5.45;4.10;;;;;;;;;;4902414;29;20382;-81
2021/07/29 09:53:37;;;;;;;5.20;3.85;;;;;;;;;;4909973;29;20028;-81
2021/07/29 09:56:11;;;;;;;8.63;4.45;;;;;;;;;;4935372;29;20040;-81
2021/07/29 09:58:37;;;;;;;4.45;3.85;;;;;;;;;;4939784;29;20024;-82
2021/07/29 13:52:20;;;;;;;6.50;3.83;;;;;;;;;;5072814;23;20406;-83
2021/07/29 14:01:09;;;;;;;5.28;4.28;;;;;;;;;;5055840;23;20118;-86
2021/07/29 14:03:35;;;;;;;6.95;3.97;;;;;;;;;;5029629;28;20488;-86
2021/07/29 14:06:11;;;;;;;6.18;3.90;;;;;;;;;;5009310;28;20128;-85
2021/07/29 14:08:37;;;;;;;5.50;4.47;;;;;;;;;;5026120;28;20113;-87
2021/07/29 14:11:04;;;;;;;5.93;4.30;;;;;;;;;;5021210;28;20518;-87
2021/07/29 14:13:31;;;;;;;6.00;4.22;;;;;;;;;;5009732;28;20022;-87
2021/07/29 14:15:56;;;;;;;6.65;4.40;;;;;;;;;;5006582;28;20101;-87
2021/07/29 14:18:32;;;;;;;5.40;4.03;;;;;;;;;;5004601;28;20053;-86
2021/07/29 14:21:02;;;;;;;5.53;4.40;;;;;;;;;;5019049;28;20026;-87
2021/07/29 14:23:28;;;;;;;8.15;4.55;;;;;;;;;;4999134;28;20036;-88
2021/07/29 14:32:38;;;;;;;5.32;4.25;;;;;;;;;;5020138;28;20080;-89
2021/07/29 14:35:04;;;;;;;6.70;3.95;;;;;;;;;;4995981;28;20026;-87
2021/07/29 14:37:30;;;;;;;4.47;3.92;;;;;;;;;;4996992;28;20069;-88
2021/07/29 14:40:00;;;;;;;5.30;4.47;;;;;;;;;;5001271;28;20029;-88
2021/07/29 14:42:26;;;;;;;6.55;4.20;;;;;;;;;;5004263;28;20025;-88
2021/07/29 14:44:57;;;;;;;8.13;4.68;;;;;;;;;;4990538;28;20035;-89
2021/07/29 14:50:06;;;;;;;5.57;4.28;;;;;;;;;;5010382;28;20115;-87
2021/07/29 14:52:33;;;;;;;6.30;3.95;;;;;;;;;;4997473;28;20481;-88
2021/07/29 14:55:05;;;;;;;5.82;4.15;;;;;;;;;;4988085;28;20494;-88
2021/07/29 14:57:54;;;;;;;8.95;4.45;;;;;;;;;;4987768;28;20064;-90
2021/07/29 16:07:39;;;;;;;6.55;4.70;;;;;;;;;;5017350;28;20508;-88
2021/07/29 16:10:05;;;;;;;5.90;4.70;;;;;;;;;;4998718;28;20134;-87
2021/07/29 16:12:31;;;;;;;14.50;5.05;;;;;;;;;;5005343;28;20520;-88
2021/07/29 16:14:56;;;;;;;7.55;4.32;;;;;;;;;;5000758;28;20061;-89
2021/07/29 16:17:22;;;;;;;8.02;4.82;;;;;;;;;;4994244;28;20022;-89
2021/07/29 16:19:47;;;;;;;7.93;4.78;;;;;;;;;;4994031;28;20037;-87
2021/07/29 16:22:13;;;;;;;6.97;4.55;;;;;;;;;;4985267;28;20449;-89
2021/07/29 16:24:38;;;;;;;7.78;4.82;;;;;;;;;;4994826;28;20025;-90
2021/07/29 16:27:04;;;;;;;7.60;4.55;;;;;;;;;;4987232;28;20386;-87
2021/07/29 16:29:30;;;;;;;6.60;4.57;;;;;;;;;;4990628;28;20493;-87
2021/07/29 16:31:55;;;;;;;5.47;3.83;;;;;;;;;;4993037;28;20025;-88
2021/07/29 16:34:21;;;;;;;5.13;4.38;;;;;;;;;;4995156;28;20017;-88
2021/07/29 16:36:46;;;;;;;5.13;4.57;;;;;;;;;;4996641;28;20029;-87
2021/07/29 16:39:12;;;;;;;4.97;4.47;;;;;;;;;;4994099;28;20022;-87
2021/07/29 16:41:38;;;;;;;13.10;4.88;;;;;;;;;;4992274;28;20029;-87
2021/07/29 16:44:05;;;;;;;9.85;4.60;;;;;;;;;;5004800;28;20030;-87
2021/07/29 16:46:31;;;;;;;4.75;4.35;;;;;;;;;;4980468;28;20026;-87
2021/07/29 16:48:56;;;;;;;6.80;4.82;;;;;;;;;;4995899;28;20383;-87
2021/07/29 16:51:22;;;;;;;5.60;4.65;;;;;;;;;;5002670;28;20061;-88
2021/07/29 16:53:47;;;;;;;7.95;4.53;;;;;;;;;;4982866;28;20383;-87
2021/07/29 16:56:13;;;;;;;7.28;4.60;;;;;;;;;;4991311;28;20121;-87
2021/07/29 16:58:38;;;;;;;7.90;4.55;;;;;;;;;;4995027;28;20082;-87
2021/07/29 17:01:04;;;;;;;6.72;4.60;;;;;;;;;;5006469;28;20046;-87
2021/07/29 17:03:29;;;;;;;6.43;4.50;;;;;;;;;;4987259;28;20481;-87
2021/07/29 17:05:55;;;;;;;6.82;4.70;;;;;;;;;;4987286;28;20410;-86
2021/07/29 17:08:23;;;;;;;5.38;4.88;;;;;;;;;;5004434;28;20040;-85
2021/07/29 17:10:49;;;;;;;5.63;4.88;;;;;;;;;;4982862;28;20041;-86
2021/07/29 17:13:14;;;;;;;7.60;4.85;;;;;;;;;;4977866;28;20038;-86
2021/07/29 17:15:44;;;;;;;7.00;4.53;;;;;;;;;;4977467;28;20025;-86
2021/07/29 17:18:09;;;;;;;7.00;4.53;;;;;;;;;;5009303;28;20029;-86
2021/07/29 17:20:36;;;;;;;5.10;4.40;;;;;;;;;;4992111;28;20038;-87
2021/07/29 17:23:03;;;;;;;5.28;4.32;;;;;;;;;;5000076;28;20030;-86
2021/07/29 17:25:28;;;;;;;6.13;4.18;;;;;;;;;;5010368;28;20053;-88
2021/07/29 17:27:54;;;;;;;5.68;4.65;;;;;;;;;;4979722;28;20483;-87
2021/07/29 17:30:19;;;;;;;6.95;4.57;;;;;;;;;;5010692;28;20053;-88
2021/07/29 17:32:45;;;;;;;6.60;4.30;;;;;;;;;;4993803;28;20022;-87
2021/07/29 17:35:11;;;;;;;5.00;4.28;;;;;;;;;;4993776;28;20397;-86
2021/07/29 17:37:36;;;;;;;5.38;4.55;;;;;;;;;;4986169;28;20457;-87
2021/07/29 17:40:06;;;;;;;5.97;4.90;;;;;;;;;;4994861;28;20018;-87
2021/07/29 17:42:31;;;;;;;8.52;4.88;;;;;;;;;;5002462;28;20049;-87
2021/07/29 17:44:57;;;;;;;7.95;5.15;;;;;;;;;;4990081;28;20080;-87
2021/07/29 17:47:23;;;;;;;7.25;5.10;;;;;;;;;;5007112;28;20109;-88
2021/07/29 17:49:49;;;;;;;9.27;5.40;;;;;;;;;;4999187;28;20065;-88
2021/07/29 17:52:21;;;;;;;6.10;4.45;;;;;;;;;;4995215;28;20034;-86
2021/07/29 17:54:47;;;;;;;7.93;4.85;;;;;;;;;;5012576;28;20485;-85
2021/07/29 17:57:13;;;;;;;7.85;4.80;;;;;;;;;;4999958;28;20029;-87
2021/07/29 17:59:38;;;;;;;6.25;5.22;;;;;;;;;;4983481;28;20441;-87
2021/07/29 18:02:07;;;;;;;8.25;5.88;;;;;;;;;;4988259;28;20120;-84
2021/07/29 18:04:33;;;;;;;8.48;6.13;;;;;;;;;;4990267;28;20030;-87
2021/07/29 18:07:00;;;;;;;7.03;5.43;;;;;;;;;;4994377;28;20474;-87
2021/07/29 18:09:26;;;;;;;5.82;4.80;;;;;;;;;;5000954;28;20083;-87
2021/07/29 18:11:52;;;;;;;5.90;4.93;;;;;;;;;;5004681;28;20041;-88
2021/07/29 18:14:17;;;;;;;11.18;8.05;;;;;;;;;;4994839;28;20034;-88
2021/07/29 18:16:43;;;;;;;9.80;7.32;;;;;;;;;;4998540;28;20111;-87
2021/07/29 18:19:08;;;;;;;10.27;5.97;;;;;;;;;;4998077;28;20036;-86
2021/07/29 18:21:35;;;;;;;8.20;5.53;;;;;;;;;;5014073;28;20053;-87
2021/07/29 18:24:01;;;;;;;9.77;5.90;;;;;;;;;;4998061;28;20103;-87
2021/07/29 18:36:34;;;;;;;6.88;5.40;;;;;;;;;;5017986;28;20040;-83
2021/07/29 18:38:59;;;;;;;10.80;5.22;;;;;;;;;;4999406;28;20034;-83
2021/07/29 18:41:26;;;;;;;6.20;5.60;;;;;;;;;;4999326;28;20075;-83
2021/07/29 18:43:51;;;;;;;8.85;5.80;;;;;;;;;;4999757;28;20486;-82
2021/07/29 18:49:42;;;;;;;8.73;5.50;;;;;;;;;;5146517;23;20088;-80
